sensor_id;sensor_type;location;lat;lon;timestamp;P1;durP1;ratioP1;P2;durP2;ratioP2
60969;SDS011;46841;48.938;9.502;2023-03-14T00:01:30;133.45;;;6.35;;
60969;SDS011;46841;48.938;9.502;2023-03-14T00:03:55;337.30;;;10.88;;
60969;SDS011;46841;48.938;9.502;2023-03-14T00:06:20;279.88;;;15.63;;
60969;SDS011;46841;48.938;9.502;2023-03-14T00:08:46;40.83;;;4.35;;
60969;SDS011;46841;48.938;9.502;2023-03-14T00:11:13;157.43;;;10.13;;
60969;SDS011;46841;48.938;9.502;2023-03-14T00:13:39;482.48;;;22.23;;
60969;SDS011;46841;48.938;9.502;2023-03-14T00:16:06;284.98;;;16.20;;
60969;SDS011;46841;48.938;9.502;2023-03-14T00:18:31;343.13;;;11.60;;
60969;SDS011;46841;48.938;9.502;2023-03-14T00:20:58;12.15;;;3.20;;
60969;SDS011;46841;48.938;9.502;2023-03-14T00:23:24;72.63;;;5.97;;
60969;SDS011;46841;48.938;9.502;2023-03-14T00:25:49;45.25;;;4.55;;
60969;SDS011;46841;48.938;9.502;2023-03-14T00:28:14;200.75;;;8.98;;
60969;SDS011;46841;48.938;9.502;2023-03-14T00:30:40;20.08;;;3.67;;
60969;SDS011;46841;48.938;9.502;2023-03-14T00:33:08;177.25;;;11.32;;
60969;SDS011;46841;48.938;9.502;2023-03-14T00:35:33;9.90;;;3.10;;
60969;SDS011;46841;48.938;9.502;2023-03-14T00:37:58;81.28;;;6.05;;
60969;SDS011;46841;48.938;9.502;2023-03-14T00:40:23;6.60;;;2.72;;
60969;SDS011;46841;48.938;9.502;2023-03-14T00:42:49;11.77;;;2.97;;
60969;SDS011;46841;48.938;9.502;2023-03-14T00:45:14;603.35;;;18.52;;
60969;SDS011;46841;48.938;9.502;2023-03-14T00:47:39;37.03;;;4.30;;
60969;SDS011;46841;48.938;9.502;2023-03-14T00:50:05;258.25;;;10.35;;
60969;SDS011;46841;48.938;9.502;2023-03-14T00:52:30;19.55;;;2.47;;
60969;SDS011;46841;48.938;9.502;2023-03-14T00:54:55;77.43;;;4.68;;
60969;SDS011;46841;48.938;9.502;2023-03-14T00:57:21;145.80;;;7.78;;
60969;SDS011;46841;48.938;9.502;2023-03-14T00:59:46;177.63;;;7.90;;
60969;SDS011;46841;48.938;9.502;2023-03-14T01:02:11;13.80;;;2.33;;
60969;SDS011;46841;48.938;9.502;2023-03-14T01:04:37;229.77;;;11.05;;
60969;SDS011;46841;48.938;9.502;2023-03-14T01:09:30;135.07;;;6.90;;
60969;SDS011;46841;48.938;9.502;2023-03-14T01:11:55;130.38;;;5.40;;
60969;SDS011;46841;48.938;9.502;2023-03-14T01:14:22;52.08;;;3.80;;
60969;SDS011;46841;48.938;9.502;2023-03-14T01:16:47;122.30;;;4.47;;
60969;SDS011;46841;48.938;9.502;2023-03-14T01:19:12;9.70;;;2.20;;
60969;SDS011;46841;48.938;9.502;2023-03-14T01:21:38;16.70;;;2.40;;
60969;SDS011;46841;48.938;9.502;2023-03-14T01:24:03;28.92;;;3.17;;
60969;SDS011;46841;48.938;9.502;2023-03-14T01:26:30;63.30;;;4.15;;
60969;SDS011;46841;48.938;9.502;2023-03-14T01:28:56;5.43;;;1.80;;
60969;SDS011;46841;48.938;9.502;2023-03-14T01:31:22;90.43;;;4.05;;
60969;SDS011;46841;48.938;9.502;2023-03-14T01:33:48;16.48;;;2.53;;
60969;SDS011;46841;48.938;9.502;2023-03-14T01:36:13;43.92;;;3.22;;
60969;SDS011;46841;48.938;9.502;2023-03-14T01:38:40;3.40;;;1.58;;
60969;SDS011;46841;48.938;9.502;2023-03-14T01:41:09;2.88;;;1.48;;
60969;SDS011;46841;48.938;9.502;2023-03-14T01:43:36;2.55;;;1.48;;
60969;SDS011;46841;48.938;9.502;2023-03-14T01:48:33;2.08;;;1.30;;
60969;SDS011;46841;48.938;9.502;2023-03-14T01:50:59;4.00;;;1.33;;
60969;SDS011;46841;48.938;9.502;2023-03-14T01:53:25;8.05;;;1.75;;
60969;SDS011;46841;48.938;9.502;2023-03-14T01:55:52;6.07;;;1.52;;
60969;SDS011;46841;48.938;9.502;2023-03-14T01:58:17;3.75;;;1.40;;
60969;SDS011;46841;48.938;9.502;2023-03-14T02:00:45;4.00;;;1.73;;
60969;SDS011;46841;48.938;9.502;2023-03-14T02:03:11;28.90;;;2.83;;
60969;SDS011;46841;48.938;9.502;2023-03-14T02:05:38;3.63;;;1.60;;
60969;SDS011;46841;48.938;9.502;2023-03-14T02:08:10;3.35;;;1.67;;
60969;SDS011;46841;48.938;9.502;2023-03-14T02:10:44;6.05;;;1.80;;
60969;SDS011;46841;48.938;9.502;2023-03-14T02:15:46;2.03;;;1.40;;
60969;SDS011;46841;48.938;9.502;2023-03-14T02:18:32;5.30;;;1.80;;
60969;SDS011;46841;48.938;9.502;2023-03-14T02:26:35;4.13;;;2.00;;
60969;SDS011;46841;48.938;9.502;2023-03-14T02:29:02;4.07;;;1.90;;
60969;SDS011;46841;48.938;9.502;2023-03-14T02:31:28;3.35;;;1.63;;
60969;SDS011;46841;48.938;9.502;2023-03-14T02:33:54;2.85;;;1.65;;
60969;SDS011;46841;48.938;9.502;2023-03-14T02:36:19;2.92;;;1.48;;
60969;SDS011;46841;48.938;9.502;2023-03-14T02:38:53;4.33;;;1.70;;
60969;SDS011;46841;48.938;9.502;2023-03-14T02:41:22;3.83;;;1.60;;
60969;SDS011;46841;48.938;9.502;2023-03-14T02:43:57;3.28;;;1.48;;
60969;SDS011;46841;48.938;9.502;2023-03-14T02:46:23;1.73;;;1.40;;
60969;SDS011;46841;48.938;9.502;2023-03-14T02:48:53;1.88;;;1.20;;
60969;SDS011;46841;48.938;9.502;2023-03-14T02:51:19;3.60;;;1.33;;
60969;SDS011;46841;48.938;9.502;2023-03-14T02:53:46;5.72;;;1.60;;
60969;SDS011;46841;48.938;9.502;2023-03-14T02:56:12;3.50;;;1.80;;
60969;SDS011;46841;48.938;9.502;2023-03-14T02:58:37;3.38;;;1.52;;
60969;SDS011;46841;48.938;9.502;2023-03-14T03:01:11;1.98;;;1.38;;
60969;SDS011;46841;48.938;9.502;2023-03-14T03:03:37;2.05;;;1.20;;
60969;SDS011;46841;48.938;9.502;2023-03-14T03:06:02;3.08;;;1.40;;
60969;SDS011;46841;48.938;9.502;2023-03-14T03:08:28;3.70;;;1.40;;
60969;SDS011;46841;48.938;9.502;2023-03-14T03:10:55;6.93;;;1.65;;
60969;SDS011;46841;48.938;9.502;2023-03-14T03:13:21;5.17;;;1.60;;
60969;SDS011;46841;48.938;9.502;2023-03-14T03:15:51;2.60;;;1.60;;
60969;SDS011;46841;48.938;9.502;2023-03-14T03:18:17;3.45;;;1.60;;
60969;SDS011;46841;48.938;9.502;2023-03-14T03:20:42;2.47;;;1.50;;
60969;SDS011;46841;48.938;9.502;2023-03-14T03:23:08;6.18;;;1.60;;
60969;SDS011;46841;48.938;9.502;2023-03-14T03:25:33;4.95;;;1.98;;
60969;SDS011;46841;48.938;9.502;2023-03-14T03:28:02;2.90;;;1.48;;
60969;SDS011;46841;48.938;9.502;2023-03-14T03:30:27;6.20;;;1.50;;
60969;SDS011;46841;48.938;9.502;2023-03-14T03:32:52;5.80;;;1.58;;
60969;SDS011;46841;48.938;9.502;2023-03-14T03:35:18;3.25;;;1.60;;
60969;SDS011;46841;48.938;9.502;2023-03-14T03:37:43;3.95;;;1.52;;
60969;SDS011;46841;48.938;9.502;2023-03-14T03:40:09;4.10;;;1.67;;
60969;SDS011;46841;48.938;9.502;2023-03-14T03:42:35;2.95;;;1.50;;
60969;SDS011;46841;48.938;9.502;2023-03-14T03:45:01;3.45;;;2.20;;
60969;SDS011;46841;48.938;9.502;2023-03-14T03:47:27;7.30;;;1.67;;
60969;SDS011;46841;48.938;9.502;2023-03-14T03:49:55;4.07;;;1.80;;
60969;SDS011;46841;48.938;9.502;2023-03-14T03:52:20;2.33;;;1.60;;
60969;SDS011;46841;48.938;9.502;2023-03-14T03:54:45;5.13;;;1.60;;
60969;SDS011;46841;48.938;9.502;2023-03-14T03:57:11;3.28;;;1.70;;
60969;SDS011;46841;48.938;9.502;2023-03-14T03:59:36;4.18;;;1.65;;
60969;SDS011;46841;48.938;9.502;2023-03-14T04:04:29;2.97;;;1.70;;
60969;SDS011;46841;48.938;9.502;2023-03-14T04:06:54;4.93;;;1.90;;
60969;SDS011;46841;48.938;9.502;2023-03-14T04:09:20;5.53;;;1.80;;
60969;SDS011;46841;48.938;9.502;2023-03-14T04:11:56;8.75;;;1.80;;
60969;SDS011;46841;48.938;9.502;2023-03-14T04:14:28;3.85;;;1.77;;
60969;SDS011;46841;48.938;9.502;2023-03-14T04:17:08;2.72;;;1.40;;
60969;SDS011;46841;48.938;9.502;2023-03-14T04:19:33;5.18;;;1.88;;
60969;SDS011;46841;48.938;9.502;2023-03-14T04:21:58;3.13;;;1.65;;
60969;SDS011;46841;48.938;9.502;2023-03-14T04:24:28;4.82;;;1.70;;
60969;SDS011;46841;48.938;9.502;2023-03-14T04:26:55;4.72;;;1.70;;
60969;SDS011;46841;48.938;9.502;2023-03-14T04:29:21;5.80;;;1.92;;
60969;SDS011;46841;48.938;9.502;2023-03-14T04:31:46;4.95;;;1.80;;
60969;SDS011;46841;48.938;9.502;2023-03-14T04:34:12;4.75;;;1.92;;
60969;SDS011;46841;48.938;9.502;2023-03-14T04:36:43;9.88;;;1.67;;
60969;SDS011;46841;48.938;9.502;2023-03-14T04:39:14;8.57;;;1.75;;
60969;SDS011;46841;48.938;9.502;2023-03-14T04:41:46;4.07;;;1.48;;
60969;SDS011;46841;48.938;9.502;2023-03-14T04:44:12;6.80;;;2.42;;
60969;SDS011;46841;48.938;9.502;2023-03-14T04:46:37;8.68;;;2.05;;
60969;SDS011;46841;48.938;9.502;2023-03-14T04:49:05;9.10;;;2.22;;
60969;SDS011;46841;48.938;9.502;2023-03-14T04:51:30;4.30;;;2.13;;
60969;SDS011;46841;48.938;9.502;2023-03-14T04:53:56;7.28;;;2.00;;
60969;SDS011;46841;48.938;9.502;2023-03-14T04:56:21;6.03;;;1.77;;
60969;SDS011;46841;48.938;9.502;2023-03-14T04:58:47;10.65;;;2.03;;
60969;SDS011;46841;48.938;9.502;2023-03-14T05:01:15;6.65;;;2.08;;
60969;SDS011;46841;48.938;9.502;2023-03-14T05:03:58;9.48;;;2.35;;
60969;SDS011;46841;48.938;9.502;2023-03-14T05:06:44;8.57;;;2.20;;
60969;SDS011;46841;48.938;9.502;2023-03-14T05:09:23;12.68;;;2.60;;
60969;SDS011;46841;48.938;9.502;2023-03-14T05:12:11;6.07;;;2.10;;
60969;SDS011;46841;48.938;9.502;2023-03-14T05:14:59;5.65;;;1.48;;
60969;SDS011;46841;48.938;9.502;2023-03-14T05:17:47;6.47;;;1.80;;
60969;SDS011;46841;48.938;9.502;2023-03-14T05:20:28;9.27;;;2.22;;
60969;SDS011;46841;48.938;9.502;2023-03-14T05:23:13;7.63;;;2.20;;
60969;SDS011;46841;48.938;9.502;2023-03-14T05:25:47;6.68;;;2.03;;
60969;SDS011;46841;48.938;9.502;2023-03-14T05:28:37;7.95;;;2.03;;
60969;SDS011;46841;48.938;9.502;2023-03-14T05:31:12;5.22;;;1.70;;
60969;SDS011;46841;48.938;9.502;2023-03-14T05:33:57;12.38;;;2.05;;
60969;SDS011;46841;48.938;9.502;2023-03-14T05:36:52;4.35;;;1.30;;
60969;SDS011;46841;48.938;9.502;2023-03-14T05:39:37;6.28;;;1.55;;
60969;SDS011;46841;48.938;9.502;2023-03-14T05:42:23;10.23;;;1.80;;
60969;SDS011;46841;48.938;9.502;2023-03-14T05:45:05;8.52;;;1.80;;
60969;SDS011;46841;48.938;9.502;2023-03-14T05:47:49;7.30;;;2.00;;
60969;SDS011;46841;48.938;9.502;2023-03-14T05:50:28;5.25;;;1.63;;
60969;SDS011;46841;48.938;9.502;2023-03-14T05:53:12;4.60;;;1.65;;
60969;SDS011;46841;48.938;9.502;2023-03-14T05:55:56;6.10;;;1.95;;
60969;SDS011;46841;48.938;9.502;2023-03-14T05:58:52;3.33;;;1.52;;
60969;SDS011;46841;48.938;9.502;2023-03-14T06:01:24;5.05;;;1.48;;
60969;SDS011;46841;48.938;9.502;2023-03-14T06:04:08;5.28;;;1.50;;
60969;SDS011;46841;48.938;9.502;2023-03-14T06:06:34;6.80;;;1.50;;
60969;SDS011;46841;48.938;9.502;2023-03-14T06:09:00;4.45;;;1.58;;
60969;SDS011;46841;48.938;9.502;2023-03-14T06:11:25;4.70;;;1.45;;
60969;SDS011;46841;48.938;9.502;2023-03-14T06:13:51;5.00;;;1.30;;
60969;SDS011;46841;48.938;9.502;2023-03-14T06:16:16;3.85;;;1.63;;
60969;SDS011;46841;48.938;9.502;2023-03-14T06:18:42;5.20;;;1.40;;
60969;SDS011;46841;48.938;9.502;2023-03-14T06:21:09;3.30;;;1.33;;
60969;SDS011;46841;48.938;9.502;2023-03-14T06:23:36;5.18;;;1.70;;
60969;SDS011;46841;48.938;9.502;2023-03-14T06:26:02;4.32;;;1.42;;
60969;SDS011;46841;48.938;9.502;2023-03-14T06:28:28;4.68;;;1.70;;
60969;SDS011;46841;48.938;9.502;2023-03-14T06:30:58;2.35;;;1.10;;
60969;SDS011;46841;48.938;9.502;2023-03-14T06:33:24;2.08;;;1.30;;
60969;SDS011;46841;48.938;9.502;2023-03-14T06:35:49;3.88;;;1.42;;
60969;SDS011;46841;48.938;9.502;2023-03-14T06:38:14;7.88;;;2.00;;
60969;SDS011;46841;48.938;9.502;2023-03-14T06:40:40;6.15;;;1.70;;
60969;SDS011;46841;48.938;9.502;2023-03-14T06:43:10;3.45;;;1.30;;
60969;SDS011;46841;48.938;9.502;2023-03-14T06:45:37;9.90;;;2.25;;
60969;SDS011;46841;48.938;9.502;2023-03-14T06:48:03;3.03;;;1.50;;
60969;SDS011;46841;48.938;9.502;2023-03-14T06:50:43;3.72;;;1.70;;
60969;SDS011;46841;48.938;9.502;2023-03-14T06:53:09;5.97;;;2.03;;
60969;SDS011;46841;48.938;9.502;2023-03-14T06:55:37;6.32;;;1.60;;
60969;SDS011;46841;48.938;9.502;2023-03-14T06:58:03;6.93;;;2.13;;
60969;SDS011;46841;48.938;9.502;2023-03-14T07:02:56;4.97;;;1.92;;
60969;SDS011;46841;48.938;9.502;2023-03-14T07:05:27;2.85;;;1.40;;
60969;SDS011;46841;48.938;9.502;2023-03-14T07:07:52;6.68;;;1.50;;
60969;SDS011;46841;48.938;9.502;2023-03-14T07:10:17;3.30;;;1.63;;
60969;SDS011;46841;48.938;9.502;2023-03-14T07:12:43;4.10;;;1.50;;
60969;SDS011;46841;48.938;9.502;2023-03-14T07:15:08;3.90;;;1.30;;
60969;SDS011;46841;48.938;9.502;2023-03-14T07:17:34;3.10;;;1.33;;
60969;SDS011;46841;48.938;9.502;2023-03-14T07:19:59;5.65;;;1.52;;
60969;SDS011;46841;48.938;9.502;2023-03-14T07:22:25;2.92;;;1.48;;
60969;SDS011;46841;48.938;9.502;2023-03-14T07:24:51;2.30;;;1.35;;
60969;SDS011;46841;48.938;9.502;2023-03-14T07:27:17;2.28;;;1.20;;
60969;SDS011;46841;48.938;9.502;2023-03-14T07:29:42;2.53;;;1.20;;
60969;SDS011;46841;48.938;9.502;2023-03-14T07:32:08;3.13;;;1.20;;
60969;SDS011;46841;48.938;9.502;2023-03-14T07:34:33;4.63;;;1.40;;
60969;SDS011;46841;48.938;9.502;2023-03-14T07:36:59;4.40;;;1.23;;
60969;SDS011;46841;48.938;9.502;2023-03-14T07:39:24;4.88;;;1.30;;
60969;SDS011;46841;48.938;9.502;2023-03-14T07:42:03;1.70;;;1.30;;
60969;SDS011;46841;48.938;9.502;2023-03-14T07:44:52;6.50;;;1.92;;
60969;SDS011;46841;48.938;9.502;2023-03-14T07:47:17;4.90;;;1.33;;
60969;SDS011;46841;48.938;9.502;2023-03-14T07:49:43;3.67;;;1.02;;
60969;SDS011;46841;48.938;9.502;2023-03-14T07:52:08;3.47;;;1.10;;
60969;SDS011;46841;48.938;9.502;2023-03-14T07:54:33;2.63;;;1.30;;
60969;SDS011;46841;48.938;9.502;2023-03-14T07:56:59;3.40;;;1.30;;
60969;SDS011;46841;48.938;9.502;2023-03-14T07:59:26;1.90;;;1.10;;
60969;SDS011;46841;48.938;9.502;2023-03-14T08:01:51;2.15;;;1.13;;
60969;SDS011;46841;48.938;9.502;2023-03-14T08:04:16;4.20;;;1.10;;
60969;SDS011;46841;48.938;9.502;2023-03-14T08:06:42;1.95;;;1.20;;
60969;SDS011;46841;48.938;9.502;2023-03-14T08:09:07;2.78;;;1.00;;
60969;SDS011;46841;48.938;9.502;2023-03-14T08:11:32;2.05;;;1.08;;
60969;SDS011;46841;48.938;9.502;2023-03-14T08:13:58;3.38;;;1.40;;
60969;SDS011;46841;48.938;9.502;2023-03-14T08:16:23;2.35;;;1.30;;
60969;SDS011;46841;48.938;9.502;2023-03-14T08:18:48;2.90;;;1.25;;
60969;SDS011;46841;48.938;9.502;2023-03-14T08:21:14;2.03;;;1.15;;
60969;SDS011;46841;48.938;9.502;2023-03-14T08:23:39;3.17;;;1.20;;
60969;SDS011;46841;48.938;9.502;2023-03-14T08:26:04;2.75;;;1.15;;
60969;SDS011;46841;48.938;9.502;2023-03-14T08:28:30;3.42;;;1.15;;
60969;SDS011;46841;48.938;9.502;2023-03-14T08:30:57;3.72;;;1.30;;
60969;SDS011;46841;48.938;9.502;2023-03-14T08:33:23;2.78;;;1.20;;
60969;SDS011;46841;48.938;9.502;2023-03-14T08:35:51;2.80;;;1.02;;
60969;SDS011;46841;48.938;9.502;2023-03-14T08:38:16;10.63;;;1.17;;
60969;SDS011;46841;48.938;9.502;2023-03-14T08:40:42;2.85;;;1.40;;
60969;SDS011;46841;48.938;9.502;2023-03-14T08:43:07;2.20;;;1.13;;
60969;SDS011;46841;48.938;9.502;2023-03-14T08:45:32;1.90;;;1.15;;
60969;SDS011;46841;48.938;9.502;2023-03-14T08:47:57;2.55;;;1.20;;
60969;SDS011;46841;48.938;9.502;2023-03-14T08:50:23;1.42;;;0.98;;
60969;SDS011;46841;48.938;9.502;2023-03-14T08:52:49;1.40;;;0.70;;
60969;SDS011;46841;48.938;9.502;2023-03-14T08:55:14;1.15;;;0.95;;
60969;SDS011;46841;48.938;9.502;2023-03-14T08:57:40;3.92;;;0.90;;
60969;SDS011;46841;48.938;9.502;2023-03-14T09:00:05;2.80;;;1.08;;
60969;SDS011;46841;48.938;9.502;2023-03-14T09:02:37;3.28;;;0.93;;
60969;SDS011;46841;48.938;9.502;2023-03-14T09:05:03;3.60;;;1.02;;
60969;SDS011;46841;48.938;9.502;2023-03-14T09:07:29;1.70;;;1.10;;
60969;SDS011;46841;48.938;9.502;2023-03-14T09:09:54;2.40;;;1.33;;
60969;SDS011;46841;48.938;9.502;2023-03-14T09:12:19;2.95;;;0.90;;
60969;SDS011;46841;48.938;9.502;2023-03-14T09:14:45;1.02;;;0.75;;
60969;SDS011;46841;48.938;9.502;2023-03-14T09:17:10;1.70;;;0.80;;
60969;SDS011;46841;48.938;9.502;2023-03-14T09:19:36;3.08;;;0.80;;
60969;SDS011;46841;48.938;9.502;2023-03-14T09:22:01;2.03;;;1.30;;
60969;SDS011;46841;48.938;9.502;2023-03-14T09:24:26;2.13;;;1.08;;
60969;SDS011;46841;48.938;9.502;2023-03-14T09:26:52;1.25;;;0.85;;
60969;SDS011;46841;48.938;9.502;2023-03-14T09:29:17;2.30;;;1.02;;
60969;SDS011;46841;48.938;9.502;2023-03-14T09:31:43;1.80;;;1.08;;
60969;SDS011;46841;48.938;9.502;2023-03-14T09:34:08;0.82;;;0.73;;
60969;SDS011;46841;48.938;9.502;2023-03-14T09:36:33;3.95;;;0.90;;
60969;SDS011;46841;48.938;9.502;2023-03-14T09:38:59;1.63;;;0.73;;
60969;SDS011;46841;48.938;9.502;2023-03-14T09:41:27;1.33;;;0.90;;
60969;SDS011;46841;48.938;9.502;2023-03-14T09:46:38;1.30;;;0.70;;
60969;SDS011;46841;48.938;9.502;2023-03-14T09:52:00;0.52;;;0.52;;
60969;SDS011;46841;48.938;9.502;2023-03-14T09:54:30;0.98;;;0.70;;
60969;SDS011;46841;48.938;9.502;2023-03-14T09:56:56;5.35;;;2.42;;
60969;SDS011;46841;48.938;9.502;2023-03-14T09:59:21;1.48;;;1.00;;
60969;SDS011;46841;48.938;9.502;2023-03-14T10:01:46;1.95;;;1.10;;
60969;SDS011;46841;48.938;9.502;2023-03-14T10:04:15;0.80;;;0.80;;
60969;SDS011;46841;48.938;9.502;2023-03-14T10:06:43;1.27;;;0.88;;
60969;SDS011;46841;48.938;9.502;2023-03-14T10:09:13;3.00;;;1.00;;
60969;SDS011;46841;48.938;9.502;2023-03-14T10:11:42;0.77;;;0.77;;
60969;SDS011;46841;48.938;9.502;2023-03-14T10:14:11;1.13;;;0.85;;
60969;SDS011;46841;48.938;9.502;2023-03-14T10:16:43;1.92;;;0.90;;
60969;SDS011;46841;48.938;9.502;2023-03-14T10:19:10;1.77;;;0.93;;
60969;SDS011;46841;48.938;9.502;2023-03-14T10:21:37;1.10;;;0.93;;
60969;SDS011;46841;48.938;9.502;2023-03-14T10:24:18;2.42;;;1.10;;
60969;SDS011;46841;48.938;9.502;2023-03-14T10:26:44;0.68;;;0.60;;
60969;SDS011;46841;48.938;9.502;2023-03-14T10:29:12;0.75;;;0.75;;
60969;SDS011;46841;48.938;9.502;2023-03-14T10:34:23;3.70;;;0.80;;
60969;SDS011;46841;48.938;9.502;2023-03-14T10:36:52;2.28;;;1.20;;
60969;SDS011;46841;48.938;9.502;2023-03-14T10:41:52;1.40;;;0.90;;
60969;SDS011;46841;48.938;9.502;2023-03-14T10:44:19;0.88;;;0.82;;
60969;SDS011;46841;48.938;9.502;2023-03-14T10:46:45;4.05;;;0.98;;
60969;SDS011;46841;48.938;9.502;2023-03-14T10:49:26;2.30;;;0.95;;
60969;SDS011;46841;48.938;9.502;2023-03-14T10:51:53;3.30;;;0.70;;
60969;SDS011;46841;48.938;9.502;2023-03-14T10:54:22;0.70;;;0.70;;
60969;SDS011;46841;48.938;9.502;2023-03-14T10:57:01;1.63;;;1.00;;
60969;SDS011;46841;48.938;9.502;2023-03-14T10:59:29;1.00;;;0.77;;
60969;SDS011;46841;48.938;9.502;2023-03-14T11:14:54;2.45;;;0.90;;
60969;SDS011;46841;48.938;9.502;2023-03-14T11:17:27;0.73;;;0.73;;
60969;SDS011;46841;48.938;9.502;2023-03-14T11:34:57;0.70;;;0.70;;
60969;SDS011;46841;48.938;9.502;2023-03-14T11:37:34;1.15;;;0.80;;
60969;SDS011;46841;48.938;9.502;2023-03-14T11:42:46;0.70;;;0.70;;
60969;SDS011;46841;48.938;9.502;2023-03-14T11:45:17;0.90;;;0.90;;
60969;SDS011;46841;48.938;9.502;2023-03-14T11:47:43;0.90;;;0.70;;
60969;SDS011;46841;48.938;9.502;2023-03-14T11:50:16;1.13;;;0.85;;
60969;SDS011;46841;48.938;9.502;2023-03-14T11:52:46;1.77;;;0.80;;
60969;SDS011;46841;48.938;9.502;2023-03-14T11:55:21;0.70;;;0.70;;
60969;SDS011;46841;48.938;9.502;2023-03-14T11:57:51;1.23;;;0.88;;
60969;SDS011;46841;48.938;9.502;2023-03-14T12:00:22;1.05;;;0.93;;
60969;SDS011;46841;48.938;9.502;2023-03-14T12:11:12;0.73;;;0.73;;
60969;SDS011;46841;48.938;9.502;2023-03-14T12:13:39;0.90;;;0.90;;
60969;SDS011;46841;48.938;9.502;2023-03-14T12:16:19;0.95;;;0.80;;
60969;SDS011;46841;48.938;9.502;2023-03-14T12:18:45;0.70;;;0.70;;
60969;SDS011;46841;48.938;9.502;2023-03-14T12:21:11;1.05;;;0.85;;
60969;SDS011;46841;48.938;9.502;2023-03-14T12:26:13;0.88;;;0.75;;
60969;SDS011;46841;48.938;9.502;2023-03-14T12:28:42;2.88;;;1.27;;
60969;SDS011;46841;48.938;9.502;2023-03-14T12:34:00;0.90;;;0.90;;
60969;SDS011;46841;48.938;9.502;2023-03-14T12:39:10;2.63;;;1.00;;
60969;SDS011;46841;48.938;9.502;2023-03-14T12:41:42;0.90;;;0.85;;
60969;SDS011;46841;48.938;9.502;2023-03-14T12:46:53;0.82;;;0.82;;
60969;SDS011;46841;48.938;9.502;2023-03-14T12:49:19;2.35;;;1.00;;
60969;SDS011;46841;48.938;9.502;2023-03-14T12:51:44;2.15;;;1.05;;
60969;SDS011;46841;48.938;9.502;2023-03-14T12:59:42;1.88;;;1.50;;
60969;SDS011;46841;48.938;9.502;2023-03-14T13:02:16;1.40;;;1.30;;
60969;SDS011;46841;48.938;9.502;2023-03-14T13:04:59;2.25;;;1.50;;
60969;SDS011;46841;48.938;9.502;2023-03-14T13:07:31;3.22;;;1.80;;
60969;SDS011;46841;48.938;9.502;2023-03-14T13:15:28;5.47;;;1.90;;
60969;SDS011;46841;48.938;9.502;2023-03-14T13:17:56;2.95;;;1.83;;
60969;SDS011;46841;48.938;9.502;2023-03-14T13:20:31;2.30;;;1.58;;
60969;SDS011;46841;48.938;9.502;2023-03-14T13:22:56;3.20;;;1.75;;
60969;SDS011;46841;48.938;9.502;2023-03-14T13:25:21;4.35;;;1.95;;
60969;SDS011;46841;48.938;9.502;2023-03-14T13:27:48;5.03;;;1.80;;
60969;SDS011;46841;48.938;9.502;2023-03-14T13:32:40;1.90;;;1.38;;
60969;SDS011;46841;48.938;9.502;2023-03-14T13:35:13;2.75;;;1.50;;
60969;SDS011;46841;48.938;9.502;2023-03-14T13:37:39;3.03;;;1.20;;
60969;SDS011;46841;48.938;9.502;2023-03-14T13:40:04;1.20;;;1.10;;
60969;SDS011;46841;48.938;9.502;2023-03-14T13:42:30;2.17;;;1.30;;
60969;SDS011;46841;48.938;9.502;2023-03-14T13:44:56;2.25;;;1.23;;
60969;SDS011;46841;48.938;9.502;2023-03-14T13:47:22;3.55;;;2.22;;
60969;SDS011;46841;48.938;9.502;2023-03-14T13:49:48;3.58;;;1.23;;
60969;SDS011;46841;48.938;9.502;2023-03-14T13:54:52;2.55;;;1.33;;
60969;SDS011;46841;48.938;9.502;2023-03-14T13:57:17;1.50;;;1.13;;
60969;SDS011;46841;48.938;9.502;2023-03-14T13:59:43;2.13;;;1.38;;
60969;SDS011;46841;48.938;9.502;2023-03-14T14:02:14;3.25;;;1.23;;
60969;SDS011;46841;48.938;9.502;2023-03-14T14:04:39;3.08;;;1.00;;
60969;SDS011;46841;48.938;9.502;2023-03-14T14:07:09;3.42;;;1.25;;
60969;SDS011;46841;48.938;9.502;2023-03-14T14:09:45;3.65;;;1.13;;
60969;SDS011;46841;48.938;9.502;2023-03-14T14:12:13;4.65;;;1.40;;
60969;SDS011;46841;48.938;9.502;2023-03-14T14:14:48;2.10;;;1.15;;
60969;SDS011;46841;48.938;9.502;2023-03-14T14:17:16;0.98;;;0.90;;
60969;SDS011;46841;48.938;9.502;2023-03-14T14:19:42;10.68;;;2.03;;
60969;SDS011;46841;48.938;9.502;2023-03-14T14:22:08;3.13;;;1.40;;
60969;SDS011;46841;48.938;9.502;2023-03-14T14:24:35;1.45;;;1.20;;
60969;SDS011;46841;48.938;9.502;2023-03-14T14:27:03;2.55;;;1.10;;
60969;SDS011;46841;48.938;9.502;2023-03-14T14:29:33;2.42;;;1.65;;
60969;SDS011;46841;48.938;9.502;2023-03-14T14:34:43;1.08;;;1.00;;
60969;SDS011;46841;48.938;9.502;2023-03-14T14:37:18;2.78;;;1.05;;
60969;SDS011;46841;48.938;9.502;2023-03-14T14:39:43;1.13;;;1.00;;
60969;SDS011;46841;48.938;9.502;2023-03-14T14:42:12;1.83;;;0.80;;
60969;SDS011;46841;48.938;9.502;2023-03-14T14:44:38;2.30;;;1.20;;
60969;SDS011;46841;48.938;9.502;2023-03-14T14:47:03;3.20;;;1.20;;
60969;SDS011;46841;48.938;9.502;2023-03-14T14:49:30;1.52;;;1.10;;
60969;SDS011;46841;48.938;9.502;2023-03-14T14:52:00;3.67;;;1.35;;
60969;SDS011;46841;48.938;9.502;2023-03-14T14:54:34;4.28;;;1.58;;
60969;SDS011;46841;48.938;9.502;2023-03-14T14:57:02;4.40;;;1.30;;
60969;SDS011;46841;48.938;9.502;2023-03-14T14:59:28;1.73;;;1.20;;
60969;SDS011;46841;48.938;9.502;2023-03-14T15:01:58;1.25;;;1.13;;
60969;SDS011;46841;48.938;9.502;2023-03-14T15:04:23;2.03;;;1.27;;
60969;SDS011;46841;48.938;9.502;2023-03-14T15:06:49;2.28;;;1.10;;
60969;SDS011;46841;48.938;9.502;2023-03-14T15:09:15;3.65;;;1.20;;
60969;SDS011;46841;48.938;9.502;2023-03-14T15:11:42;2.90;;;1.40;;
60969;SDS011;46841;48.938;9.502;2023-03-14T15:14:08;2.20;;;1.42;;
60969;SDS011;46841;48.938;9.502;2023-03-14T15:16:33;3.17;;;1.42;;
60969;SDS011;46841;48.938;9.502;2023-03-14T15:19:00;3.40;;;1.35;;
60969;SDS011;46841;48.938;9.502;2023-03-14T15:21:26;3.60;;;1.30;;
60969;SDS011;46841;48.938;9.502;2023-03-14T15:23:51;5.25;;;1.42;;
60969;SDS011;46841;48.938;9.502;2023-03-14T15:26:17;1.85;;;1.45;;
60969;SDS011;46841;48.938;9.502;2023-03-14T15:28:43;2.27;;;1.30;;
60969;SDS011;46841;48.938;9.502;2023-03-14T15:31:09;8.27;;;1.80;;
60969;SDS011;46841;48.938;9.502;2023-03-14T15:33:35;1.83;;;1.23;;
60969;SDS011;46841;48.938;9.502;2023-03-14T15:36:00;3.42;;;1.45;;
60969;SDS011;46841;48.938;9.502;2023-03-14T15:38:26;3.70;;;1.30;;
60969;SDS011;46841;48.938;9.502;2023-03-14T15:40:51;3.67;;;1.45;;
60969;SDS011;46841;48.938;9.502;2023-03-14T15:43:17;2.90;;;1.48;;
60969;SDS011;46841;48.938;9.502;2023-03-14T15:45:43;2.38;;;1.33;;
60969;SDS011;46841;48.938;9.502;2023-03-14T15:48:12;4.25;;;1.50;;
60969;SDS011;46841;48.938;9.502;2023-03-14T15:50:39;4.35;;;1.63;;
60969;SDS011;46841;48.938;9.502;2023-03-14T15:53:04;3.78;;;1.25;;
60969;SDS011;46841;48.938;9.502;2023-03-14T15:55:29;4.47;;;1.58;;
60969;SDS011;46841;48.938;9.502;2023-03-14T15:57:55;5.63;;;1.40;;
60969;SDS011;46841;48.938;9.502;2023-03-14T16:00:20;3.35;;;1.65;;
60969;SDS011;46841;48.938;9.502;2023-03-14T16:02:49;2.45;;;1.50;;
60969;SDS011;46841;48.938;9.502;2023-03-14T16:05:15;8.68;;;1.77;;
60969;SDS011;46841;48.938;9.502;2023-03-14T16:07:40;3.22;;;1.60;;
60969;SDS011;46841;48.938;9.502;2023-03-14T16:10:06;6.18;;;1.80;;
60969;SDS011;46841;48.938;9.502;2023-03-14T16:12:32;4.82;;;1.70;;
60969;SDS011;46841;48.938;9.502;2023-03-14T16:14:58;3.83;;;1.60;;
60969;SDS011;46841;48.938;9.502;2023-03-14T16:17:23;5.10;;;1.60;;
60969;SDS011;46841;48.938;9.502;2023-03-14T16:19:49;3.83;;;1.70;;
60969;SDS011;46841;48.938;9.502;2023-03-14T16:22:14;8.07;;;1.83;;
60969;SDS011;46841;48.938;9.502;2023-03-14T16:24:39;5.18;;;1.48;;
60969;SDS011;46841;48.938;9.502;2023-03-14T16:27:04;6.97;;;1.48;;
60969;SDS011;46841;48.938;9.502;2023-03-14T16:29:30;5.78;;;1.73;;